Time;durP1;ratioP1;P1;durP2;ratioP2;P2;SDS_P1;SDS_P2;PMS_P1;PMS_P2;Temp;Humidity;BMP_temperature;BMP_pressure;BME280_temperature;BME280_humidity;BME280_pressure;Samples;Min_cycle;Max_cycle;Signal;HPM_P1;HPM_P2
2023/12/09 00:00:22;;;;;;;0.20;0.20;;;;;;;5.34;100.00;100111.59;5035714;28;20550;-53
2023/12/09 00:02:49;;;;;;;0.20;0.20;;;;;;;5.41;100.00;100112.44;5035189;28;20456;-56
2023/12/09 00:05:15;;;;;;;0.20;0.10;;;;;;;5.39;100.00;100114.22;5050519;28;20462;-56
2023/12/09 00:07:42;;;;;;;0.20;0.20;;;;;;;5.38;100.00;100121.25;5021202;28;20452;-54
2023/12/09 00:10:09;;;;;;;0.30;0.20;;;;;;;5.34;100.00;100114.25;5034246;28;20550;-54
2023/12/09 00:12:35;;;;;;;0.20;0.10;;;;;;;5.32;100.00;100122.16;5035384;28;20481;-54
2023/12/09 00:15:04;;;;;;;0.27;0.20;;;;;;;5.32;100.00;100123.94;5035307;28;20463;-54
2023/12/09 00:17:31;;;;;;;0.20;0.20;;;;;;;5.30;100.00;100125.72;5035445;28;20530;-54
2023/12/09 00:19:59;;;;;;;0.20;0.10;;;;;;;5.32;100.00;100124.81;5035446;28;20886;-54
2023/12/09 00:22:25;;;;;;;2.73;2.03;;;;;;;5.26;100.00;100114.34;5022012;28;20456;-55
2023/12/09 00:24:52;;;;;;;0.20;0.20;;;;;;;5.31;100.00;100127.44;5034255;28;20448;-55
2023/12/09 00:27:19;;;;;;;0.20;0.20;;;;;;;5.28;100.00;100131.00;5018963;28;20495;-54
2023/12/09 00:29:46;;;;;;;0.20;0.20;;;;;;;5.42;100.00;100125.59;5027127;28;20475;-54
2023/12/09 00:32:12;;;;;;;0.20;0.10;;;;;;;5.37;100.00;100131.81;5035468;28;20502;-54
2023/12/09 00:34:39;;;;;;;0.20;0.10;;;;;;;5.26;100.00;100131.91;5034002;28;20455;-54
2023/12/09 00:37:05;;;;;;;0.20;0.20;;;;;;;5.24;100.00;100116.13;5027925;28;20507;-54
2023/12/09 00:39:32;;;;;;;0.20;0.20;;;;;;;5.35;100.00;100123.91;5026464;28;20494;-54
2023/12/09 00:41:59;;;;;;;0.27;0.20;;;;;;;5.37;100.00;100131.81;5033466;28;20539;-55
2023/12/09 00:44:25;;;;;;;0.20;0.10;;;;;;;5.30;100.00;100137.13;5026174;28;20467;-54
2023/12/09 00:46:52;;;;;;;0.30;0.20;;;;;;;5.36;100.00;100138.84;5033503;28;20518;-55
2023/12/09 00:49:18;;;;;;;0.20;0.13;;;;;;;5.39;100.00;100141.44;5033499;28;20515;-54
2023/12/09 00:51:45;;;;;;;0.20;0.10;;;;;;;5.37;100.00;100134.44;5033294;28;20452;-54
2023/12/09 00:54:11;;;;;;;0.20;0.20;;;;;;;5.27;100.00;100133.66;5033362;28;20521;-54
2023/12/09 00:56:38;;;;;;;0.20;0.20;;;;;;;5.41;100.00;100130.88;5033201;28;20963;-54
2023/12/09 00:59:05;;;;;;;0.30;0.20;;;;;;;5.42;100.00;100130.84;5027805;28;20519;-54
2023/12/09 01:01:33;;;;;;;0.20;0.10;;;;;;;5.37;100.00;100131.81;5033350;28;20452;-54
2023/12/09 01:04:01;;;;;;;0.20;0.10;;;;;;;5.31;100.00;100138.00;5032457;28;20864;-54
2023/12/09 01:06:29;;;;;;;0.20;0.20;;;;;;;5.15;100.00;100139.03;5016027;28;20954;-54
2023/12/09 01:08:56;;;;;;;0.20;0.10;;;;;;;5.23;100.00;100138.09;5029236;28;20480;-54
2023/12/09 01:11:24;;;;;;;0.30;0.17;;;;;;;5.27;100.00;100136.28;5035299;28;20471;-54
2023/12/09 01:13:50;;;;;;;0.20;0.20;;;;;;;5.28;100.00;100143.31;5033774;28;20615;-54
2023/12/09 01:16:17;;;;;;;0.43;0.43;;;;;;;5.29;100.00;100145.91;5022590;28;20525;-54
2023/12/09 01:18:43;;;;;;;0.30;0.20;;;;;;;5.26;100.00;100153.84;5034505;28;20502;-55
2023/12/09 01:21:10;;;;;;;0.30;0.20;;;;;;;5.22;100.00;100156.53;5027835;28;20452;-54
2023/12/09 01:23:37;;;;;;;0.30;0.20;;;;;;;5.23;100.00;100150.38;5027758;28;20460;-54
2023/12/09 01:26:04;;;;;;;0.20;0.10;;;;;;;5.29;100.00;100148.56;5022337;28;20509;-54
2023/12/09 01:28:31;;;;;;;0.20;0.10;;;;;;;5.34;100.00;100148.50;5021423;28;20544;-54
2023/12/09 01:30:57;;;;;;;0.20;0.10;;;;;;;5.25;100.00;100153.88;5034257;28;20448;-54
2023/12/09 01:33:23;;;;;;;0.20;0.20;;;;;;;5.31;100.00;100146.78;5033101;28;20506;-54
2023/12/09 01:35:50;;;;;;;0.20;0.10;;;;;;;5.13;100.00;100132.91;5032594;28;20459;-55
2023/12/09 01:38:17;;;;;;;0.20;0.10;;;;;;;5.17;100.00;100148.66;5020548;28;20488;-54
2023/12/09 01:40:43;;;;;;;0.20;0.20;;;;;;;5.16;100.00;100144.28;5025546;28;20457;-55
2023/12/09 01:43:10;;;;;;;0.20;0.20;;;;;;;5.14;100.00;100139.91;5028894;28;20484;-54
2023/12/09 01:45:37;;;;;;;0.30;0.20;;;;;;;5.08;100.00;100145.25;5024860;28;20479;-54
2023/12/09 01:48:04;;;;;;;0.30;0.20;;;;;;;5.23;100.00;100143.34;5030284;28;20506;-54
2023/12/09 01:50:31;;;;;;;2.40;2.30;;;;;;;5.15;100.00;100142.53;5033537;28;20570;-54
2023/12/09 01:52:58;;;;;;;0.20;0.10;;;;;;;5.19;100.00;100143.38;5031965;28;20535;-55
2023/12/09 01:55:25;;;;;;;0.20;0.10;;;;;;;5.16;100.00;100135.50;5023271;28;20479;-54
2023/12/09 01:57:52;;;;;;;0.20;0.10;;;;;;;4.94;100.00;100125.19;5025774;28;20455;-55
2023/12/09 02:00:19;;;;;;;0.20;0.20;;;;;;;4.98;100.00;100134.78;5021807;28;20475;-54
2023/12/09 02:02:48;;;;;;;0.20;0.20;;;;;;;5.19;100.00;100135.47;5032351;28;20452;-54
2023/12/09 02:05:15;;;;;;;0.20;0.17;;;;;;;5.16;100.00;100130.25;5022218;28;20515;-54
2023/12/09 02:07:41;;;;;;;3.90;3.70;;;;;;;5.28;100.00;100127.50;5016843;28;20454;-56
2023/12/09 02:10:09;;;;;;;0.20;0.10;;;;;;;5.23;100.00;100116.13;5032018;28;20472;-54
2023/12/09 02:12:51;;;;;;;0.20;0.10;;;;;;;5.22;100.00;100127.56;5031623;28;20455;-55
2023/12/09 02:15:52;;;;;;;0.20;0.20;;;;;;;5.30;100.00;100117.81;5019562;28;21021;-54
2023/12/09 02:18:22;;;;;;;0.20;0.20;;;;;;;5.33;100.00;100104.59;5014202;28;20479;-55
2023/12/09 02:20:49;;;;;;;0.20;0.20;;;;;;;5.19;100.00;100090.69;5027474;28;20444;-55
2023/12/09 02:23:16;;;;;;;0.20;0.20;;;;;;;5.19;100.00;100080.16;5023053;28;20553;-57
2023/12/09 02:25:42;;;;;;;0.20;0.10;;;;;;;5.27;100.00;100091.50;5018499;28;20485;-57
2023/12/09 02:28:17;;;;;;;8.37;7.63;;;;;;;5.31;100.00;100072.13;5020566;28;20495;-57
2023/12/09 02:30:59;;;;;;;0.30;0.30;;;;;;;5.23;100.00;100071.34;5031374;28;20473;-57
2023/12/09 02:33:26;;;;;;;0.20;0.10;;;;;;;5.31;100.00;100067.72;5029723;28;20463;-56
2023/12/09 02:35:54;;;;;;;0.20;0.10;;;;;;;5.31;100.00;100058.94;5020083;28;20502;-56
2023/12/09 02:38:22;;;;;;;0.20;0.20;;;;;;;5.29;100.00;100064.22;5018602;28;20500;-56
2023/12/09 02:40:50;;;;;;;0.20;0.20;;;;;;;5.34;100.00;100061.53;5031689;28;21020;-56
2023/12/09 02:43:16;;;;;;;0.20;0.20;;;;;;;5.09;100.00;100057.44;5029040;28;20537;-56
2023/12/09 02:45:46;;;;;;;0.20;0.17;;;;;;;5.22;100.00;100054.66;5021450;28;20530;-57
2023/12/09 02:48:12;;;;;;;0.20;0.10;;;;;;;5.14;100.00;100045.09;5031580;28;20455;-56
2023/12/09 02:50:40;;;;;;;0.20;0.20;;;;;;;5.16;100.00;100046.81;5035366;28;20980;-55
2023/12/09 02:53:06;;;;;;;0.20;0.10;;;;;;;5.22;100.00;100041.50;5032297;28;20457;-52
2023/12/09 02:55:33;;;;;;;0.20;0.10;;;;;;;5.17;100.00;100045.91;5023759;28;20452;-52
2023/12/09 02:57:59;;;;;;;0.20;0.10;;;;;;;5.09;100.00;100039.88;5035438;28;20509;-53
2023/12/09 03:00:26;;;;;;;0.20;0.10;;;;;;;5.23;100.00;100042.34;5028416;28;20475;-53
2023/12/09 03:02:53;;;;;;;0.20;0.20;;;;;;;5.26;100.00;100042.31;5031603;28;20456;-53
2023/12/09 03:05:19;;;;;;;0.20;0.20;;;;;;;5.22;100.00;100057.28;5025645;28;20455;-52
2023/12/09 03:07:46;;;;;;;0.20;0.10;;;;;;;5.16;100.00;100057.34;5022312;28;20539;-52
2023/12/09 03:10:12;;;;;;;1.63;1.60;;;;;;;5.12;100.00;100063.53;5035397;28;20527;-52
2023/12/09 03:12:39;;;;;;;0.20;0.10;;;;;;;5.10;100.00;100069.72;5031069;28;20506;-53
2023/12/09 03:15:06;;;;;;;1.37;1.37;;;;;;;5.09;100.00;100068.84;5026043;28;20936;-52
2023/12/09 03:17:34;;;;;;;0.30;0.20;;;;;;;5.08;100.00;100067.09;5035196;28;20464;-54
2023/12/09 03:20:02;;;;;;;0.20;0.10;;;;;;;5.14;100.00;100069.66;5035189;28;20487;-53
2023/12/09 03:22:29;;;;;;;0.20;0.10;;;;;;;5.05;100.00;100073.25;5022406;28;20451;-54
2023/12/09 03:24:56;;;;;;;0.20;0.20;;;;;;;4.94;100.00;100066.38;5024429;28;20460;-52
2023/12/09 03:27:22;;;;;;;0.20;0.20;;;;;;;5.06;100.00;100067.09;5029800;28;20464;-52
2023/12/09 03:29:49;;;;;;;0.20;0.10;;;;;;;5.02;100.00;100060.13;5028985;28;20903;-52
2023/12/09 03:32:16;;;;;;;0.23;0.20;;;;;;;5.06;100.00;100064.47;5036026;28;20992;-52
2023/12/09 03:34:45;;;;;;;0.20;0.10;;;;;;;5.12;100.00;100066.19;5036387;28;20991;-52
2023/12/09 03:37:12;;;;;;;0.20;0.10;;;;;;;5.22;100.00;100064.34;5023308;28;20456;-52
2023/12/09 03:39:39;;;;;;;1.03;1.03;;;;;;;5.17;100.00;100053.81;5029230;28;20979;-54
2023/12/09 03:42:06;;;;;;;0.20;0.10;;;;;;;5.12;100.00;100062.66;5028629;28;20483;-52
2023/12/09 03:44:33;;;;;;;0.20;0.10;;;;;;;5.08;100.00;100047.78;5035794;28;20448;-52
2023/12/09 03:46:59;;;;;;;0.73;0.73;;;;;;;5.05;100.00;100059.22;5036499;28;20452;-54
2023/12/09 03:49:32;;;;;;;0.20;0.10;;;;;;;5.04;100.00;100042.53;5036453;28;20542;-56
2023/12/09 03:51:58;;;;;;;0.20;0.20;;;;;;;5.00;100.00;100032.06;5034136;28;20557;-56
2023/12/09 03:54:25;;;;;;;0.20;0.17;;;;;;;5.03;100.00;100037.28;5020204;28;20455;-56
2023/12/09 03:56:52;;;;;;;7.10;6.60;;;;;;;5.16;100.00;100051.19;5034496;28;20531;-57
2023/12/09 03:59:18;;;;;;;0.20;0.10;;;;;;;5.17;100.00;100052.94;5033240;28;20915;-57
2023/12/09 04:01:49;;;;;;;0.20;0.10;;;;;;;5.07;100.00;100054.78;5023586;28;20513;-57
2023/12/09 04:04:16;;;;;;;0.20;0.20;;;;;;;5.12;100.00;100057.41;5034047;28;20455;-56
2023/12/09 04:06:43;;;;;;;0.20;0.13;;;;;;;5.20;100.00;100061.69;5025133;28;20480;-56
2023/12/09 04:09:10;;;;;;;0.20;0.17;;;;;;;5.22;100.00;100070.47;5030134;28;20988;-57
2023/12/09 04:11:37;;;;;;;0.20;0.10;;;;;;;5.14;100.00;100061.75;5049502;28;20479;-56
2023/12/09 04:14:06;;;;;;;0.20;0.10;;;;;;;5.20;100.00;100063.44;5020363;28;20969;-57
2023/12/09 04:16:33;;;;;;;0.20;0.10;;;;;;;5.15;100.00;100071.41;5034258;28;20542;-57
2023/12/09 04:18:59;;;;;;;0.47;0.47;;;;;;;5.16;100.00;100061.75;5033999;28;20491;-56
2023/12/09 04:21:26;;;;;;;0.20;0.20;;;;;;;5.11;100.00;100068.84;5024304;28;20449;-56
2023/12/09 04:23:53;;;;;;;0.20;0.20;;;;;;;5.22;100.00;100059.06;5032899;28;20455;-56
2023/12/09 04:26:19;;;;;;;0.20;0.20;;;;;;;5.19;100.00;100067.84;5033814;28;20456;-56
2023/12/09 04:28:46;;;;;;;0.20;0.10;;;;;;;5.28;100.00;100054.59;5020729;28;20521;-56
2023/12/09 04:31:13;;;;;;;0.20;0.20;;;;;;;5.18;100.00;100049.41;5033865;28;20451;-57
2023/12/09 04:33:40;;;;;;;0.20;0.20;;;;;;;5.10;100.00;100048.66;5033488;28;20517;-57
2023/12/09 04:36:07;;;;;;;0.30;0.30;;;;;;;5.08;100.00;100042.53;5033834;28;20458;-57
2023/12/09 04:38:34;;;;;;;1.30;1.30;;;;;;;5.08;100.00;100037.25;5020359;28;20479;-56
2023/12/09 04:41:01;;;;;;;0.30;0.20;;;;;;;4.93;100.00;100028.59;5033304;28;20824;-56
2023/12/09 04:43:28;;;;;;;0.20;0.20;;;;;;;4.97;100.00;100009.25;5030885;28;20459;-56
2023/12/09 04:45:54;;;;;;;0.20;0.10;;;;;;;4.77;100.00;100013.84;5033920;28;20455;-56
2023/12/09 04:48:21;;;;;;;0.20;0.10;;;;;;;4.87;100.00;99999.69;5033660;28;20973;-56
2023/12/09 04:50:48;;;;;;;0.20;0.10;;;;;;;4.86;100.00;99997.97;5033240;28;20459;-56
2023/12/09 04:53:14;;;;;;;0.30;0.20;;;;;;;5.03;100.00;100005.69;5027964;28;20469;-56
2023/12/09 04:55:41;;;;;;;0.20;0.10;;;;;;;5.09;100.00;99996.84;5025870;28;20917;-56
2023/12/09 04:58:08;;;;;;;0.20;0.10;;;;;;;5.09;100.00;99989.81;5033403;28;20448;-56
2023/12/09 05:00:34;;;;;;;0.77;0.77;;;;;;;5.21;100.00;99988.81;5031446;28;20503;-56
2023/12/09 05:03:01;;;;;;;0.20;0.20;;;;;;;5.20;100.00;99993.19;5026637;28;20930;-57
2023/12/09 05:05:27;;;;;;;0.20;0.20;;;;;;;5.30;100.00;99988.69;5025876;28;20462;-56
2023/12/09 05:07:55;;;;;;;0.20;0.10;;;;;;;5.33;100.00;99986.88;5019818;28;20455;-57
2023/12/09 05:10:21;;;;;;;0.20;0.10;;;;;;;5.39;100.00;99990.34;5033300;28;20521;-56
2023/12/09 05:12:48;;;;;;;0.20;0.10;;;;;;;5.29;100.00;99981.66;5026094;28;20452;-56
2023/12/09 05:15:14;;;;;;;0.20;0.10;;;;;;;5.31;100.00;99974.63;5013364;28;20457;-56
2023/12/09 05:17:41;;;;;;;0.20;0.10;;;;;;;5.30;100.00;99980.78;5032014;28;20984;-56
2023/12/09 05:20:09;;;;;;;0.20;0.13;;;;;;;5.32;100.00;99976.34;5032716;28;20497;-52
2023/12/09 05:22:37;;;;;;;0.20;0.20;;;;;;;5.30;100.00;99976.38;5020567;28;20467;-54
2023/12/09 05:25:04;;;;;;;0.23;0.10;;;;;;;5.17;100.00;99981.81;5032985;28;20456;-52
2023/12/09 05:27:31;;;;;;;0.20;0.10;;;;;;;5.09;100.00;99984.56;5026342;28;20460;-53
2023/12/09 05:29:58;;;;;;;0.20;0.20;;;;;;;5.13;100.00;99986.25;5025086;28;20559;-52
2023/12/09 05:32:24;;;;;;;0.20;0.10;;;;;;;5.08;100.00;99981.94;5017523;28;20458;-53
2023/12/09 05:34:51;;;;;;;0.20;0.20;;;;;;;5.18;100.00;99973.03;5032641;28;20448;-53
2023/12/09 05:37:18;;;;;;;0.30;0.20;;;;;;;5.10;100.00;99962.59;5020884;28;20504;-52
2023/12/09 05:39:44;;;;;;;0.20;0.20;;;;;;;5.20;100.00;99960.69;5026551;28;20499;-54
2023/12/09 05:42:11;;;;;;;0.20;0.10;;;;;;;5.18;100.00;99960.72;5041789;28;20492;-52
2023/12/09 05:44:38;;;;;;;0.20;0.10;;;;;;;5.16;100.00;99953.72;5031508;28;20456;-53
2023/12/09 05:47:04;;;;;;;0.20;0.20;;;;;;;5.13;100.00;99952.00;5021245;28;20542;-54
2023/12/09 05:49:31;;;;;;;0.20;0.20;;;;;;;5.13;100.00;99956.41;5032176;28;20530;-52
2023/12/09 05:51:58;;;;;;;0.20;0.10;;;;;;;5.12;100.00;99962.56;5032170;28;20459;-53
2023/12/09 05:54:24;;;;;;;0.20;0.10;;;;;;;5.08;100.00;99955.59;5027161;28;20533;-52
2023/12/09 05:56:51;;;;;;;0.20;0.20;;;;;;;5.05;100.00;99962.63;5020041;28;20535;-54
2023/12/09 05:59:17;;;;;;;0.93;0.93;;;;;;;5.09;100.00;99952.06;5032082;28;20495;-53
2023/12/09 06:01:44;;;;;;;0.20;0.20;;;;;;;5.06;100.00;99956.47;5021721;28;20468;-53
2023/12/09 06:04:10;;;;;;;0.20;0.10;;;;;;;5.13;100.00;99945.88;5029901;28;20476;-53
2023/12/09 06:06:37;;;;;;;0.20;0.10;;;;;;;5.23;100.00;99935.19;5029020;28;20451;-53
2023/12/09 06:09:04;;;;;;;0.20;0.10;;;;;;;5.18;100.00;99941.41;5031951;28;20468;-54
2023/12/09 06:11:31;;;;;;;0.20;0.20;;;;;;;5.17;100.00;99939.66;5032088;28;20828;-53
2023/12/09 06:13:58;;;;;;;0.20;0.10;;;;;;;5.18;100.00;99942.28;5031951;28;20448;-53
2023/12/09 06:16:24;;;;;;;0.20;0.20;;;;;;;5.17;100.00;99937.03;5032004;28;20456;-53
2023/12/09 06:18:51;;;;;;;0.20;0.10;;;;;;;5.10;100.00;99946.78;5028393;28;20934;-53
2023/12/09 06:21:21;;;;;;;0.20;0.10;;;;;;;5.15;100.00;99936.19;5023307;28;20459;-53
2023/12/09 06:23:48;;;;;;;0.30;0.20;;;;;;;5.16;100.00;99937.91;5027735;28;20460;-52
2023/12/09 06:26:15;;;;;;;0.20;0.10;;;;;;;5.18;100.00;99930.88;5031745;28;20879;-53
2023/12/09 06:28:41;;;;;;;0.23;0.13;;;;;;;5.16;100.00;99916.84;5014747;28;20484;-53
2023/12/09 06:31:10;;;;;;;0.20;0.10;;;;;;;5.27;100.00;99922.84;5031717;28;20483;-53
2023/12/09 06:33:37;;;;;;;0.20;0.10;;;;;;;5.24;100.00;99931.69;5031407;28;20952;-53
2023/12/09 06:36:05;;;;;;;0.20;0.10;;;;;;;5.15;100.00;99930.91;5031208;28;20465;-53
2023/12/09 06:38:34;;;;;;;0.20;0.13;;;;;;;5.26;100.00;99924.63;5016364;28;20460;-58
2023/12/09 06:41:00;;;;;;;0.20;0.10;;;;;;;5.27;100.00;99929.00;5013426;28;20539;-58
2023/12/09 06:43:27;;;;;;;0.20;0.20;;;;;;;5.33;100.00;99928.03;5028372;28;20916;-58
2023/12/09 06:45:53;;;;;;;0.20;0.10;;;;;;;5.24;100.00;99921.13;5013040;28;20503;-59
2023/12/09 06:48:20;;;;;;;0.20;0.20;;;;;;;5.26;100.00;99927.25;5029343;28;20870;-58
2023/12/09 06:50:47;;;;;;;0.20;0.10;;;;;;;5.19;100.00;99928.22;5031169;28;20547;-58
2023/12/09 06:53:13;;;;;;;0.20;0.10;;;;;;;5.30;100.00;99944.75;5027912;28;20937;-58
2023/12/09 06:55:40;;;;;;;0.20;0.20;;;;;;;5.11;100.00;99945.03;5012835;28;20502;-57
2023/12/09 06:58:07;;;;;;;0.20;0.17;;;;;;;5.21;100.00;99951.94;5030000;28;20941;-58
2023/12/09 07:00:33;;;;;;;0.20;0.10;;;;;;;5.22;100.00;99944.00;5025883;28;20491;-58
2023/12/09 07:03:00;;;;;;;0.20;0.10;;;;;;;5.35;100.00;99940.31;5017065;28;20456;-53
2023/12/09 07:05:27;;;;;;;0.20;0.20;;;;;;;5.30;100.00;99942.13;5023879;28;20448;-52
2023/12/09 07:07:54;;;;;;;0.20;0.20;;;;;;;5.37;100.00;99953.47;5018127;28;20462;-53
2023/12/09 07:10:20;;;;;;;0.20;0.10;;;;;;;5.40;100.00;99958.69;5030775;28;20467;-51
2023/12/09 07:12:47;;;;;;;0.20;0.10;;;;;;;5.37;100.00;99952.59;5031007;28;20452;-53
2023/12/09 07:15:15;;;;;;;0.20;0.10;;;;;;;5.42;100.00;99956.03;5030990;28;20463;-52
2023/12/09 07:17:41;;;;;;;0.20;0.13;;;;;;;5.40;100.00;99948.16;5030223;28;20462;-53
2023/12/09 07:20:09;;;;;;;0.20;0.10;;;;;;;5.44;100.00;99938.44;5030357;28;20531;-54
2023/12/09 07:22:36;;;;;;;0.20;0.10;;;;;;;5.43;100.00;99934.06;5022334;28;20513;-53
2023/12/09 07:25:03;;;;;;;0.20;0.10;;;;;;;5.41;100.00;99930.56;5030805;28;20530;-53
2023/12/09 07:27:29;;;;;;;0.20;0.10;;;;;;;5.62;100.00;99925.03;5024500;28;20500;-54
2023/12/09 07:29:56;;;;;;;0.20;0.10;;;;;;;5.49;100.00;99937.50;5028933;28;20475;-52
2023/12/09 07:32:22;;;;;;;0.20;0.13;;;;;;;5.55;100.00;99931.25;5017837;28;20891;-52
2023/12/09 07:34:49;;;;;;;0.20;0.10;;;;;;;5.46;100.00;99929.59;5032026;28;20447;-53
2023/12/09 07:37:16;;;;;;;0.20;0.13;;;;;;;5.23;100.00;99918.53;5028854;28;20506;-53
2023/12/09 07:39:43;;;;;;;0.20;0.10;;;;;;;5.44;100.00;99915.59;5014944;28;20938;-53
2023/12/09 07:42:10;;;;;;;0.20;0.10;;;;;;;5.47;100.00;99902.34;5034267;28;20514;-53
2023/12/09 07:44:36;;;;;;;0.20;0.10;;;;;;;5.61;100.00;99902.16;5034915;28;20452;-53
2023/12/09 07:47:03;;;;;;;0.20;0.10;;;;;;;5.68;100.00;99906.47;5034791;28;20447;-53
2023/12/09 07:49:30;;;;;;;0.30;0.20;;;;;;;5.62;100.00;99907.44;5034548;28;20478;-54
2023/12/09 07:51:57;;;;;;;0.20;0.20;;;;;;;5.57;100.00;99906.63;5034536;28;20538;-53
2023/12/09 07:54:23;;;;;;;0.30;0.20;;;;;;;5.62;100.00;99917.13;5034222;28;20984;-53
2023/12/09 07:56:50;;;;;;;0.20;0.20;;;;;;;5.54;100.00;99904.03;5021624;28;20503;-53
2023/12/09 07:59:16;;;;;;;0.20;0.20;;;;;;;5.56;100.00;99890.81;5034424;28;20478;-53
2023/12/09 08:01:43;;;;;;;0.30;0.27;;;;;;;5.50;100.00;99896.19;5033768;28;20448;-53
2023/12/09 08:04:09;;;;;;;0.20;0.10;;;;;;;5.55;100.00;99897.84;5028505;28;20965;-54
2023/12/09 08:06:36;;;;;;;0.30;0.30;;;;;;;5.63;100.00;99898.63;5026894;28;20826;-53
2023/12/09 08:09:03;;;;;;;0.20;0.10;;;;;;;5.69;100.00;99896.78;5028512;28;20472;-53
2023/12/09 08:11:30;;;;;;;0.30;0.20;;;;;;;5.68;100.00;99890.66;5034158;28;20447;-54
2023/12/09 08:13:56;;;;;;;0.20;0.10;;;;;;;5.78;100.00;99886.97;5034349;28;20887;-53
2023/12/09 08:16:23;;;;;;;0.20;0.10;;;;;;;5.72;100.00;99886.19;5034332;28;20514;-53
2023/12/09 08:18:49;;;;;;;0.20;0.20;;;;;;;5.61;100.00;99889.84;5034094;28;20479;-55
2023/12/09 08:21:16;;;;;;;0.20;0.10;;;;;;;5.58;100.00;99889.03;5025678;28;20488;-53
2023/12/09 08:23:43;;;;;;;0.20;0.17;;;;;;;5.49;100.00;99879.50;5016209;28;20502;-53
2023/12/09 08:26:15;;;;;;;0.20;0.17;;;;;;;5.41;100.00;99873.47;5034251;28;20502;-55
2023/12/09 08:28:42;;;;;;;0.20;0.10;;;;;;;5.45;100.00;99861.97;5017415;28;20522;-53
2023/12/09 08:31:08;;;;;;;0.20;0.20;;;;;;;5.57;100.00;99845.97;5033817;28;20444;-53
2023/12/09 08:33:35;;;;;;;0.20;0.10;;;;;;;5.72;100.00;99839.59;5033625;28;20464;-55
2023/12/09 08:36:01;;;;;;;0.20;0.10;;;;;;;5.77;100.00;99836.91;5033834;28;20463;-53
2023/12/09 08:38:28;;;;;;;0.20;0.10;;;;;;;5.75;100.00;99829.00;5020177;28;20534;-53
2023/12/09 08:40:54;;;;;;;0.20;0.10;;;;;;;5.72;100.00;99828.19;5034014;28;20527;-55
2023/12/09 08:43:21;;;;;;;9.33;8.60;;;;;;;5.65;100.00;99820.38;5033646;28;20952;-53
2023/12/09 08:45:47;;;;;;;16.30;1.67;;;;;;;5.84;100.00;99815.66;5033214;28;20451;-54
2023/12/09 08:48:14;;;;;;;0.20;0.10;;;;;;;5.87;100.00;99814.72;5033140;28;20448;-53
2023/12/09 08:50:41;;;;;;;0.20;0.10;;;;;;;5.91;100.00;99813.84;5033436;28;20979;-53
2023/12/09 08:53:08;;;;;;;0.20;0.10;;;;;;;6.12;100.00;99812.56;5033578;28;20456;-54
2023/12/09 08:55:34;;;;;;;0.20;0.13;;;;;;;6.24;100.00;99807.94;5033595;28;20479;-53
2023/12/09 08:58:01;;;;;;;0.20;0.10;;;;;;;6.28;100.00;99807.88;5033365;28;20479;-53
2023/12/09 09:00:28;;;;;;;0.20;0.20;;;;;;;6.20;100.00;99811.53;5033053;28;20491;-54
2023/12/09 09:02:55;;;;;;;0.20;0.20;;;;;;;6.23;100.00;99806.19;5028323;28;20491;-55
2023/12/09 09:05:22;;;;;;;0.20;0.10;;;;;;;6.19;100.00;99799.25;5033201;28;20452;-53
2023/12/09 09:07:49;;;;;;;0.20;0.20;;;;;;;6.32;100.00;99805.16;5015172;28;20464;-55
2023/12/09 09:10:18;;;;;;;0.20;0.20;;;;;;;6.50;100.00;99793.38;5024874;28;20499;-53
2023/12/09 09:12:46;;;;;;;0.30;0.20;;;;;;;6.52;100.00;99797.72;5033161;28;20487;-53
2023/12/09 09:15:15;;;;;;;0.20;0.10;;;;;;;6.65;100.00;99797.47;5048381;28;20880;-53
2023/12/09 09:17:42;;;;;;;0.20;0.20;;;;;;;6.79;100.00;99800.69;5032945;28;20534;-53
2023/12/09 09:20:10;;;;;;;0.30;0.20;;;;;;;6.94;100.00;99779.22;5032632;28;20523;-56
2023/12/09 09:22:37;;;;;;;0.20;0.10;;;;;;;6.99;100.00;99785.28;5033066;28;20464;-54
2023/12/09 09:25:04;;;;;;;0.30;0.17;;;;;;;7.00;100.00;99775.59;5033026;28;20475;-54
2023/12/09 09:27:30;;;;;;;0.30;0.20;;;;;;;7.20;100.00;99768.06;5026331;28;20468;-54
2023/12/09 09:29:57;;;;;;;1.47;1.37;;;;;;;7.30;100.00;99763.44;5026100;28;20470;-53
2023/12/09 09:32:24;;;;;;;0.30;0.20;;;;;;;7.44;100.00;99763.97;5048120;28;20452;-53
2023/12/09 09:34:51;;;;;;;0.30;0.20;;;;;;;7.58;100.00;99774.22;5032848;28;20525;-53
2023/12/09 09:37:18;;;;;;;0.30;0.20;;;;;;;7.78;100.00;99766.63;5026334;28;20538;-53
2023/12/09 09:39:44;;;;;;;0.30;0.20;;;;;;;7.87;100.00;99773.47;5025996;28;20511;-55
2023/12/09 09:42:21;;;;;;;0.30;0.20;;;;;;;8.06;100.00;99789.72;5032649;28;20451;-54
2023/12/09 09:44:55;;;;;;;0.30;0.20;;;;;;;8.18;100.00;99773.53;5032394;28;20451;-52
2023/12/09 09:47:21;;;;;;;0.30;0.20;;;;;;;8.19;100.00;99777.91;5032431;28;20453;-52
2023/12/09 09:49:51;;;;;;;0.30;0.20;;;;;;;8.28;100.00;99769.72;5032833;28;20519;-57
2023/12/09 09:52:22;;;;;;;0.30;0.20;;;;;;;8.34;100.00;99769.56;5032519;28;20833;-57
2023/12/09 09:54:49;;;;;;;0.30;0.20;;;;;;;8.25;100.00;99775.97;5032322;28;20477;-57
2023/12/09 09:57:16;;;;;;;0.30;0.20;;;;;;;8.52;100.00;99770.84;5031911;28;20483;-57
2023/12/09 09:59:43;;;;;;;0.30;0.20;;;;;;;8.63;100.00;99755.47;5032077;28;20467;-54
2023/12/09 10:02:10;;;;;;;0.30;0.20;;;;;;;8.66;100.00;99754.56;5029502;28;20792;-55
2023/12/09 10:04:37;;;;;;;0.30;0.20;;;;;;;8.79;100.00;99740.91;5029116;28;20593;-55
2023/12/09 10:07:04;;;;;;;0.30;0.20;;;;;;;8.81;100.00;99735.53;5021483;28;20456;-54
2023/12/09 10:09:33;;;;;;;0.30;0.20;;;;;;;8.85;100.00;99740.69;5029877;28;20545;-55
2023/12/09 10:12:00;;;;;;;0.30;0.20;;;;;;;9.02;100.00;99732.22;5031898;28;20526;-55
2023/12/09 10:14:26;;;;;;;0.30;0.20;;;;;;;9.02;100.00;99731.34;5032193;28;20451;-54
2023/12/09 10:16:53;;;;;;;0.30;0.20;;;;;;;9.11;100.00;99726.63;5031858;28;20513;-55
2023/12/09 10:19:20;;;;;;;0.30;0.20;;;;;;;8.85;100.00;99710.69;5031977;28;20480;-54
2023/12/09 10:21:47;;;;;;;0.30;0.20;;;;;;;8.87;100.00;99701.75;5019199;28;20579;-54
2023/12/09 10:24:13;;;;;;;0.30;0.20;;;;;;;8.76;100.00;99695.91;5031256;28;20487;-54
2023/12/09 10:26:40;;;;;;;0.30;0.20;;;;;;;8.96;100.00;99699.75;5031729;28;20456;-55
2023/12/09 10:29:11;;;;;;;0.30;0.20;;;;;;;8.98;100.00;99695.25;5018905;28;20992;-55
2023/12/09 10:31:38;;;;;;;0.30;0.20;;;;;;;8.97;100.00;99691.75;5031682;28;20543;-54
2023/12/09 10:34:04;;;;;;;0.30;0.20;;;;;;;9.01;100.00;99673.94;5031565;28;20456;-54
2023/12/09 10:36:31;;;;;;;0.30;0.20;;;;;;;9.08;100.00;99667.56;5030911;28;20448;-56
2023/12/09 10:38:58;;;;;;;0.30;0.20;;;;;;;8.98;100.00;99671.41;5019394;28;20470;-55
2023/12/09 10:41:28;;;;;;;0.30;0.20;;;;;;;8.98;100.00;99653.72;5031517;28;20573;-55
2023/12/09 10:43:54;;;;;;;0.30;0.20;;;;;;;9.07;100.00;99647.25;5031808;28;20463;-55
2023/12/09 10:46:21;;;;;;;0.30;0.20;;;;;;;9.00;100.00;99624.50;5031429;28;20517;-55
2023/12/09 10:48:47;;;;;;;0.30;0.20;;;;;;;9.00;100.00;99598.00;5031399;28;20460;-55
2023/12/09 10:51:14;;;;;;;0.30;0.20;;;;;;;9.24;100.00;99598.97;5031622;28;20908;-56
2023/12/09 10:53:41;;;;;;;0.30;0.30;;;;;;;9.04;100.00;99578.41;5031377;28;20951;-55
2023/12/09 10:56:08;;;;;;;0.30;0.20;;;;;;;9.08;100.00;99572.97;5031646;28;20448;-55
2023/12/09 10:58:36;;;;;;;0.30;0.20;;;;;;;9.09;100.00;99569.41;5031638;28;20547;-55
2023/12/09 11:01:07;;;;;;;0.30;0.20;;;;;;;8.97;100.00;99572.47;5031459;28;20957;-55
2023/12/09 11:03:35;;;;;;;0.30;0.20;;;;;;;9.20;100.00;99563.75;5028767;28;20945;-55
2023/12/09 11:06:05;;;;;;;0.30;0.20;;;;;;;9.11;100.00;99551.66;5024884;28;20538;-54
2023/12/09 11:08:38;;;;;;;0.30;0.20;;;;;;;9.18;100.00;99553.19;5021281;28;20454;-54
2023/12/09 11:11:07;;;;;;;1.13;1.13;;;;;;;9.08;100.00;99551.78;5034294;28;20470;-54
2023/12/09 11:13:36;;;;;;;0.30;0.20;;;;;;;9.13;100.00;99549.81;5035425;28;20752;-54
2023/12/09 11:16:10;;;;;;;0.30;0.20;;;;;;;9.22;100.00;99547.78;5035637;28;20525;-54
2023/12/09 11:18:50;;;;;;;0.30;0.20;;;;;;;9.07;100.00;99531.47;5035048;28;20474;-55
2023/12/09 11:21:22;;;;;;;0.30;0.20;;;;;;;9.25;100.00;99511.41;5024608;28;20519;-55
2023/12/09 11:23:51;;;;;;;0.30;0.20;;;;;;;9.33;100.00;99521.75;5033448;28;20549;-55
2023/12/09 11:26:27;;;;;;;0.30;0.20;;;;;;;9.50;100.00;99514.91;5025462;28;20841;-56
2023/12/09 11:29:03;;;;;;;0.30;0.20;;;;;;;9.62;100.00;99508.28;5019867;28;20522;-56